createdAt,value
2023-04-10T00:00:57.686Z,79.02
2023-04-10T00:03:27.772Z,79.03
2023-04-10T00:05:56.450Z,79.09
2023-04-10T00:08:25.770Z,79.13
2023-04-10T00:10:55.114Z,78.99
2023-04-10T00:13:23.595Z,78.96
2023-04-10T00:15:52.283Z,79.09
2023-04-10T00:18:21.382Z,79.10
2023-04-10T00:20:49.880Z,78.96
2023-04-10T00:23:18.440Z,79.01
2023-04-10T00:25:48.447Z,78.89
2023-04-10T00:28:17.556Z,79.10
2023-04-10T00:30:46.613Z,79.20
2023-04-10T00:33:15.951Z,79.13
2023-04-10T00:35:44.513Z,79.10
2023-04-10T00:38:13.599Z,79.23
2023-04-10T00:40:43.354Z,78.94
2023-04-10T00:43:12.097Z,79.18
2023-04-10T00:45:41.450Z,79.19
2023-04-10T00:48:10.954Z,79.13
2023-04-10T00:50:39.654Z,79.19
2023-04-10T00:53:08.086Z,79.23
2023-04-10T00:55:38.227Z,79.20
2023-04-10T00:58:07.296Z,79.13
2023-04-10T01:00:35.865Z,79.13
2023-04-10T01:03:05.352Z,79.17
2023-04-10T01:05:42.175Z,79.23
2023-04-10T01:09:07.058Z,79.23
2023-04-10T01:11:50.881Z,79.34
2023-04-10T01:14:44.092Z,79.26
2023-04-10T01:17:39.630Z,79.45
2023-04-10T01:20:13.529Z,79.47
2023-04-10T01:23:01.504Z,79.61
2023-04-10T01:25:43.451Z,79.67
2023-04-10T01:28:31.066Z,79.72
2023-04-10T01:31:01.974Z,79.69
2023-04-10T01:33:36.689Z,79.51
2023-04-10T01:36:08.266Z,79.38
2023-04-10T01:38:40.861Z,79.38
2023-04-10T01:41:10.078Z,79.60
2023-04-10T01:43:40.864Z,79.70
2023-04-10T01:46:12.407Z,79.61
2023-04-10T01:48:42.089Z,79.60
2023-04-10T01:51:11.997Z,79.42
2023-04-10T01:53:42.232Z,79.63
2023-04-10T01:56:11.300Z,79.62
2023-04-10T01:58:48.300Z,79.51
2023-04-10T02:01:28.903Z,79.30
2023-04-10T02:04:00.065Z,79.31
2023-04-10T02:06:44.356Z,79.54
2023-04-10T02:09:21.570Z,79.56
2023-04-10T02:12:04.964Z,79.58
2023-04-10T02:14:37.263Z,79.76
2023-04-10T02:17:06.914Z,79.54
2023-04-10T02:19:37.903Z,79.58
2023-04-10T02:22:06.980Z,79.77
2023-04-10T02:24:35.974Z,79.59
2023-04-10T02:27:04.896Z,79.56
2023-04-10T02:29:33.936Z,79.58
2023-04-10T02:32:04.485Z,79.42
2023-04-10T02:34:33.102Z,79.32
2023-04-10T02:37:01.714Z,79.22
2023-04-10T02:39:31.106Z,79.10
2023-04-10T02:41:59.912Z,79.63
2023-04-10T02:44:28.604Z,79.89
2023-04-10T02:46:57.338Z,79.87
2023-04-10T02:49:26.438Z,80.04
2023-04-10T02:51:55.330Z,79.99
2023-04-10T02:54:24.188Z,79.88
2023-04-10T02:56:53.339Z,79.90
2023-04-10T02:59:22.280Z,79.81
2023-04-10T03:01:51.414Z,79.93
2023-04-10T03:04:20.460Z,79.73
2023-04-10T03:06:49.452Z,79.89
2023-04-10T03:09:18.298Z,79.74
2023-04-10T03:11:47.409Z,79.83
2023-04-10T03:14:16.194Z,79.81
2023-04-10T03:16:45.278Z,80.03
2023-04-10T03:19:14.971Z,79.81
2023-04-10T03:21:43.716Z,79.86
2023-04-10T03:24:12.176Z,80.04
2023-04-10T03:26:41.370Z,79.98
2023-04-10T03:29:10.307Z,79.90
2023-04-10T03:31:39.071Z,79.91
2023-04-10T03:34:08.036Z,80.00
2023-04-10T03:36:36.670Z,79.89
2023-04-10T03:39:05.133Z,79.71
2023-04-10T03:41:34.153Z,79.75
2023-04-10T03:44:04.063Z,79.84
2023-04-10T03:46:32.869Z,79.67
2023-04-10T03:49:01.906Z,79.93
2023-04-10T03:51:31.876Z,79.95
2023-04-10T03:54:00.358Z,79.93
2023-04-10T03:56:30.113Z,79.91
2023-04-10T03:59:00.995Z,79.66
2023-04-10T04:01:29.650Z,79.80
2023-04-10T04:04:02.784Z,79.96
2023-04-10T04:06:59.491Z,80.13
2023-04-10T04:09:35.811Z,80.03
2023-04-10T04:12:18.341Z,80.12
2023-04-10T04:14:50.648Z,80.17
2023-04-10T04:17:48.526Z,79.99
2023-04-10T04:20:38.074Z,80.18
2023-04-10T04:23:35.059Z,80.24
2023-04-10T04:26:25.744Z,80.19
2023-04-10T04:29:13.360Z,80.30
2023-04-10T04:32:05.947Z,80.28
2023-04-10T04:34:54.322Z,80.16
2023-04-10T04:37:51.808Z,80.53
2023-04-10T04:40:39.216Z,80.35
2023-04-10T04:43:24.668Z,80.33
2023-04-10T04:46:00.563Z,80.14
2023-04-10T04:48:52.334Z,80.14
2023-04-10T04:51:27.393Z,79.96
2023-04-10T04:54:09.033Z,80.11
2023-04-10T04:57:07.777Z,80.20
2023-04-10T04:59:55.249Z,80.31
2023-04-10T05:02:44.556Z,80.45
2023-04-10T05:05:36.763Z,80.14
2023-04-10T05:08:14.782Z,80.18
2023-04-10T05:11:03.508Z,80.31
2023-04-10T05:13:55.209Z,80.18
2023-04-10T05:16:37.040Z,79.95
2023-04-10T05:19:38.121Z,80.13
2023-04-10T05:22:25.919Z,80.15
2023-04-10T05:25:14.787Z,80.27
2023-04-10T05:28:02.620Z,80.50
2023-04-10T05:30:59.997Z,80.56
2023-04-10T05:33:31.734Z,80.40
2023-04-10T05:36:13.987Z,80.22
2023-04-10T05:38:55.169Z,80.58
2023-04-10T05:41:42.371Z,80.43
2023-04-10T05:44:25.882Z,80.31
2023-04-10T05:47:05.585Z,80.46
2023-04-10T05:49:40.455Z,80.52
2023-04-10T05:52:29.235Z,80.51
2023-04-10T05:55:16.823Z,80.60
2023-04-10T05:58:04.486Z,80.73
2023-04-10T06:00:59.116Z,80.44
2023-04-10T06:03:50.960Z,80.40
2023-04-10T06:06:21.626Z,80.36
2023-04-10T06:08:50.158Z,80.55
2023-04-10T06:11:18.980Z,81.25
2023-04-10T06:13:53.324Z,80.59
2023-04-10T06:16:24.697Z,80.32
2023-04-10T06:18:55.054Z,80.20
2023-04-10T06:21:23.745Z,79.73
2023-04-10T06:23:52.812Z,79.11
2023-04-10T06:26:22.594Z,77.64
2023-04-10T06:28:51.456Z,77.26
2023-04-10T06:31:24.082Z,77.05
2023-04-10T06:33:53.085Z,77.17
2023-04-10T06:36:22.103Z,76.58
2023-04-10T06:38:57.034Z,76.92
2023-04-10T06:41:25.883Z,76.58
2023-04-10T06:43:56.514Z,77.54
2023-04-10T06:46:25.354Z,75.54
2023-04-10T06:48:54.441Z,76.06
2023-04-10T06:51:23.220Z,76.67
2023-04-10T06:53:52.705Z,76.38
2023-04-10T06:56:21.475Z,76.48
2023-04-10T06:58:49.877Z,76.31
2023-04-10T07:01:19.144Z,76.51
2023-04-10T07:03:47.804Z,76.64
2023-04-10T07:06:16.365Z,75.96
2023-04-10T07:08:45.638Z,75.96
2023-04-10T07:11:14.074Z,76.28
2023-04-10T07:13:42.494Z,77.15
2023-04-10T07:16:11.955Z,76.79
2023-04-10T07:18:41.603Z,76.17
2023-04-10T07:21:12.762Z,76.34
2023-04-10T07:23:41.688Z,76.15
2023-04-10T07:26:10.450Z,76.33
2023-04-10T07:28:39.643Z,75.90
2023-04-10T07:31:08.794Z,75.38
2023-04-10T07:33:38.547Z,75.45
2023-04-10T07:36:08.201Z,75.15
2023-04-10T07:38:38.053Z,75.45
2023-04-10T07:41:07.037Z,74.81
2023-04-10T07:43:36.162Z,74.71
2023-04-10T07:46:05.694Z,74.32
2023-04-10T07:48:34.435Z,74.35
2023-04-10T07:51:03.890Z,74.12
2023-04-10T07:53:32.668Z,73.64
2023-04-10T07:56:01.331Z,73.37
2023-04-10T07:58:31.182Z,73.44
2023-04-10T08:00:59.808Z,73.23
2023-04-10T08:03:28.570Z,72.69
2023-04-10T08:05:57.626Z,71.70
2023-04-10T08:08:26.595Z,72.14
2023-04-10T08:10:55.033Z,71.81
2023-04-10T08:13:24.117Z,70.71
2023-04-10T08:15:53.194Z,70.97
2023-04-10T08:18:21.616Z,70.39
2023-04-10T08:20:50.273Z,70.43
2023-04-10T08:23:21.042Z,70.80
2023-04-10T08:25:50.133Z,70.36
2023-04-10T08:28:20.099Z,68.74
2023-04-10T08:30:49.692Z,69.92
2023-04-10T08:33:18.218Z,69.89
2023-04-10T08:35:49.947Z,69.97
2023-04-10T08:38:18.988Z,69.64
2023-04-10T08:40:47.485Z,69.84
2023-04-10T08:43:16.212Z,68.79
2023-04-10T08:45:46.682Z,68.74
2023-04-10T08:48:16.776Z,69.14
2023-04-10T08:50:46.105Z,68.96
2023-04-10T08:53:15.895Z,67.19
2023-04-10T08:55:46.445Z,66.40
2023-04-10T08:58:16.490Z,67.40
2023-04-10T09:00:45.740Z,67.72
2023-04-10T09:03:16.531Z,67.49
2023-04-10T09:05:45.664Z,66.53
2023-04-10T09:08:15.578Z,65.60
2023-04-10T09:10:44.173Z,65.26
2023-04-10T09:13:13.130Z,65.08
2023-04-10T09:16:01.260Z,65.33
2023-04-10T09:18:50.955Z,65.07
2023-04-10T09:21:21.737Z,64.67
2023-04-10T09:24:01.426Z,64.79
2023-04-10T09:26:34.775Z,64.55
2023-04-10T09:29:07.676Z,64.72
2023-04-10T09:31:38.564Z,63.77
2023-04-10T09:34:16.895Z,62.92
2023-04-10T09:37:06.907Z,63.30
2023-04-10T09:39:36.487Z,62.99
2023-04-10T09:42:05.231Z,62.33
2023-04-10T09:44:39.132Z,61.44
2023-04-10T09:47:13.875Z,61.36
2023-04-10T09:49:52.986Z,61.20
2023-04-10T09:52:31.003Z,61.41
2023-04-10T09:55:08.041Z,60.87
2023-04-10T09:57:37.084Z,60.88
2023-04-10T10:00:10.511Z,61.14
2023-04-10T10:02:40.447Z,60.43
2023-04-10T10:05:10.860Z,60.73
2023-04-10T10:07:40.495Z,60.77
2023-04-10T10:10:09.925Z,60.97
2023-04-10T10:12:52.602Z,61.01
2023-04-10T10:15:39.289Z,59.74
2023-04-10T10:18:28.028Z,58.89
2023-04-10T10:20:57.240Z,58.13
2023-04-10T10:23:27.910Z,58.93
2023-04-10T10:25:59.347Z,59.11
2023-04-10T10:28:33.933Z,59.37
2023-04-10T10:31:04.493Z,59.00
2023-04-10T10:33:36.479Z,58.21
2023-04-10T10:36:06.303Z,58.36
2023-04-10T10:38:40.089Z,57.97
2023-04-10T10:41:14.453Z,58.40
2023-04-10T10:44:12.554Z,57.28
2023-04-10T10:46:50.362Z,57.76
2023-04-10T10:49:19.105Z,58.35
2023-04-10T10:51:50.870Z,57.45
2023-04-10T10:54:33.554Z,57.78
2023-04-10T10:57:03.407Z,57.92
2023-04-10T10:59:44.759Z,57.66
2023-04-10T11:02:18.577Z,57.86
2023-04-10T11:04:49.543Z,57.87
2023-04-10T11:07:19.181Z,57.69
2023-04-10T11:09:52.280Z,57.71
2023-04-10T11:12:26.198Z,57.62
2023-04-10T11:15:03.640Z,57.63
2023-04-10T11:17:49.097Z,57.75
2023-04-10T11:20:27.779Z,57.59
2023-04-10T11:23:12.116Z,57.51
2023-04-10T11:25:52.482Z,57.61
2023-04-10T11:28:40.073Z,57.31
2023-04-10T11:31:19.073Z,56.87
2023-04-10T11:33:57.851Z,57.33
2023-04-10T11:36:27.775Z,57.39
2023-04-10T11:38:58.392Z,57.28
2023-04-10T11:41:31.650Z,56.87
2023-04-10T11:44:02.822Z,57.18
2023-04-10T11:46:32.803Z,57.18
2023-04-10T11:49:03.579Z,56.35
2023-04-10T11:51:33.829Z,56.71
2023-04-10T11:54:12.622Z,56.99
2023-04-10T11:56:44.190Z,57.00
2023-04-10T11:59:19.976Z,56.34
2023-04-10T12:01:50.552Z,56.66
2023-04-10T12:04:21.891Z,56.74
2023-04-10T12:06:53.233Z,56.79
2023-04-10T12:09:22.571Z,56.82
2023-04-10T12:11:57.566Z,56.85
2023-04-10T12:14:40.400Z,56.97
2023-04-10T12:17:11.169Z,56.73
2023-04-10T12:19:40.631Z,56.78
2023-04-10T12:22:14.124Z,56.54
2023-04-10T12:24:47.080Z,56.48
2023-04-10T12:27:20.420Z,56.57
2023-04-10T12:29:52.566Z,56.66
2023-04-10T12:32:23.012Z,56.90
2023-04-10T12:35:02.945Z,56.81
2023-04-10T12:37:52.852Z,56.69
2023-04-10T12:40:22.060Z,56.65
2023-04-10T12:42:50.654Z,56.80
2023-04-10T12:45:19.369Z,56.53
2023-04-10T12:47:56.561Z,56.59
2023-04-10T12:50:26.837Z,56.82
2023-04-10T12:53:11.657Z,56.59
2023-04-10T12:55:41.103Z,56.74
2023-04-10T12:58:23.051Z,56.88
2023-04-10T13:00:52.201Z,56.80
2023-04-10T13:03:21.794Z,56.66
2023-04-10T13:05:50.986Z,56.63
2023-04-10T13:08:20.816Z,56.63
2023-04-10T13:10:50.180Z,56.51
2023-04-10T13:13:19.018Z,56.52
2023-04-10T13:15:48.447Z,56.58
2023-04-10T13:18:17.709Z,56.55
2023-04-10T13:20:46.347Z,56.36
2023-04-10T13:23:15.173Z,56.21
2023-04-10T13:25:44.499Z,56.35
2023-04-10T13:28:13.162Z,56.33
2023-04-10T13:30:42.997Z,56.24
2023-04-10T13:33:12.124Z,56.36
2023-04-10T13:35:40.680Z,56.20
2023-04-10T13:38:12.245Z,56.16
2023-04-10T13:40:41.542Z,56.23
2023-04-10T13:43:10.365Z,56.22
2023-04-10T13:45:39.007Z,56.02
2023-04-10T13:48:08.049Z,55.52
2023-04-10T13:50:37.020Z,55.64
2023-04-10T13:53:05.690Z,55.81
2023-04-10T13:55:36.694Z,55.96
2023-04-10T13:58:05.381Z,55.71
2023-04-10T14:00:34.427Z,55.43
2023-04-10T14:03:03.420Z,55.42
2023-04-10T14:05:32.485Z,55.52
2023-04-10T14:08:01.398Z,55.57
2023-04-10T14:10:30.475Z,55.82
2023-04-10T14:12:59.362Z,56.02
2023-04-10T14:15:28.577Z,56.01
2023-04-10T14:17:57.245Z,55.73
2023-04-10T14:20:25.803Z,55.84
2023-04-10T14:22:54.536Z,55.86
2023-04-10T14:25:23.363Z,55.68
2023-04-10T14:27:52.816Z,55.58
2023-04-10T14:30:22.280Z,55.75
2023-04-10T14:32:51.421Z,55.83
2023-04-10T14:35:20.168Z,55.77
2023-04-10T14:37:49.156Z,55.98
2023-04-10T14:40:17.953Z,55.80
2023-04-10T14:42:46.580Z,55.85
2023-04-10T14:45:16.251Z,55.77
2023-04-10T14:47:45.810Z,55.96
2023-04-10T14:50:14.385Z,56.00
2023-04-10T14:52:43.174Z,56.10
2023-04-10T14:55:12.168Z,56.09
2023-04-10T14:57:40.999Z,56.14
2023-04-10T15:00:10.465Z,56.32
2023-04-10T15:02:39.925Z,56.25
2023-04-10T15:05:09.145Z,56.19
2023-04-10T15:07:38.020Z,56.29
2023-04-10T15:10:07.788Z,56.32
2023-04-10T15:12:37.116Z,56.42
2023-04-10T15:15:07.716Z,56.45
2023-04-10T15:17:36.700Z,56.40
2023-04-10T15:20:06.368Z,56.45
2023-04-10T15:22:36.321Z,56.63
2023-04-10T15:25:05.785Z,56.61
2023-04-10T15:27:34.829Z,56.51
2023-04-10T15:30:05.367Z,56.60
2023-04-10T15:32:38.405Z,56.57
2023-04-10T15:35:08.161Z,56.62
2023-04-10T15:37:37.220Z,56.59
2023-04-10T15:40:06.538Z,56.56
2023-04-10T15:42:35.771Z,56.61
2023-04-10T15:45:04.861Z,56.71
2023-04-10T15:47:33.474Z,56.69
2023-04-10T15:50:02.220Z,56.62
2023-04-10T15:52:33.014Z,56.64
2023-04-10T15:55:02.044Z,56.55
2023-04-10T15:57:31.474Z,56.66
2023-04-10T16:00:02.437Z,56.79
2023-04-10T16:02:33.373Z,56.77
2023-04-10T16:05:02.658Z,56.83
2023-04-10T16:07:31.692Z,56.82
2023-04-10T16:10:00.849Z,56.77
2023-04-10T16:12:29.850Z,56.86
2023-04-10T16:14:58.572Z,56.89
2023-04-10T16:17:28.859Z,56.90
2023-04-10T16:19:57.990Z,56.83
2023-04-10T16:22:27.884Z,56.87
2023-04-10T16:24:57.390Z,56.95
2023-04-10T16:27:26.674Z,57.01
2023-04-10T16:29:55.223Z,56.98
2023-04-10T16:32:24.716Z,57.07
2023-04-10T16:34:53.632Z,57.03
2023-04-10T16:37:22.405Z,57.03
2023-04-10T16:39:52.459Z,57.10
2023-04-10T16:42:21.662Z,57.17
2023-04-10T16:44:50.561Z,57.27
2023-04-10T16:47:19.183Z,57.44
2023-04-10T16:49:48.546Z,57.34
2023-04-10T16:52:17.410Z,57.30
2023-04-10T16:54:46.415Z,57.43
2023-04-10T16:57:15.929Z,57.44
2023-04-10T16:59:44.524Z,57.64
2023-04-10T17:02:13.659Z,57.71
2023-04-10T17:04:55.153Z,57.75
2023-04-10T17:07:43.715Z,57.94
2023-04-10T17:10:36.531Z,57.88
2023-04-10T17:13:28.283Z,57.85
2023-04-10T17:16:25.646Z,58.02
2023-04-10T17:19:22.261Z,58.07
2023-04-10T17:22:21.850Z,57.98
2023-04-10T17:25:06.660Z,58.01
2023-04-10T17:27:54.781Z,58.12
2023-04-10T17:30:43.369Z,58.14
2023-04-10T17:33:34.148Z,58.33
2023-04-10T17:36:20.736Z,58.35
2023-04-10T17:39:13.745Z,58.34
2023-04-10T17:42:01.852Z,58.53
2023-04-10T17:44:41.672Z,58.64
2023-04-10T17:47:12.010Z,58.61
2023-04-10T17:49:41.530Z,58.76
2023-04-10T17:52:10.013Z,58.82
2023-04-10T17:54:39.594Z,59.04
2023-04-10T17:57:08.390Z,59.01
2023-04-10T17:59:37.435Z,59.06
2023-04-10T18:02:06.666Z,59.01
2023-04-10T18:04:35.870Z,59.22
2023-04-10T18:07:04.490Z,59.31
2023-04-10T18:09:33.453Z,59.21
2023-04-10T18:12:02.691Z,59.18
2023-04-10T18:14:31.483Z,59.39
2023-04-10T18:17:00.929Z,59.43
2023-04-10T18:19:31.227Z,59.64
2023-04-10T18:22:00.091Z,59.50
2023-04-10T18:24:29.341Z,59.59
2023-04-10T18:26:58.550Z,59.67
2023-04-10T18:29:30.599Z,59.86
2023-04-10T18:31:59.468Z,59.79
2023-04-10T18:34:28.020Z,59.84
2023-04-10T18:36:57.638Z,59.95
2023-04-10T18:39:26.985Z,60.21
2023-04-10T18:41:58.038Z,60.27
2023-04-10T18:44:28.860Z,60.29
2023-04-10T18:47:04.337Z,60.34
2023-04-10T18:49:34.957Z,60.46
2023-04-10T18:52:04.172Z,60.53
2023-04-10T18:54:34.899Z,60.47
2023-04-10T18:57:03.574Z,60.49
2023-04-10T18:59:33.128Z,60.68
2023-04-10T19:02:02.335Z,60.84
2023-04-10T19:04:31.445Z,60.76
2023-04-10T19:07:00.826Z,61.05
2023-04-10T19:09:29.781Z,61.13
2023-04-10T19:11:58.505Z,61.17
2023-04-10T19:14:27.426Z,61.20
2023-04-10T19:16:57.000Z,61.30
2023-04-10T19:19:25.815Z,61.27
2023-04-10T19:21:55.116Z,61.52
2023-04-10T19:24:24.166Z,61.46
2023-04-10T19:26:54.593Z,61.63
2023-04-10T19:29:25.002Z,61.76
2023-04-10T19:31:54.411Z,61.89
2023-04-10T19:34:22.935Z,61.92
2023-04-10T19:36:52.265Z,61.79
2023-04-10T19:39:24.575Z,61.79
2023-04-10T19:41:53.981Z,61.97
2023-04-10T19:44:22.624Z,62.08
2023-04-10T19:46:51.677Z,62.26
2023-04-10T19:49:20.961Z,62.27
2023-04-10T19:51:49.497Z,62.47
2023-04-10T19:54:18.684Z,62.46
2023-04-10T19:56:48.184Z,62.80
2023-04-10T19:59:16.758Z,62.41
2023-04-10T20:01:46.197Z,62.49
2023-04-10T20:04:15.888Z,62.70
2023-04-10T20:06:44.729Z,62.78
2023-04-10T20:09:13.395Z,62.97
2023-04-10T20:11:43.105Z,63.03
2023-04-10T20:14:11.641Z,63.06
2023-04-10T20:16:41.399Z,63.14
2023-04-10T20:19:10.826Z,63.13
2023-04-10T20:21:39.308Z,63.11
2023-04-10T20:24:08.353Z,63.19
2023-04-10T20:26:37.726Z,63.48
2023-04-10T20:29:06.340Z,63.47
2023-04-10T20:31:34.945Z,63.48
2023-04-10T20:34:04.185Z,63.57
2023-04-10T20:36:35.321Z,63.69
2023-04-10T20:39:04.051Z,63.94
2023-04-10T20:41:33.140Z,63.99
2023-04-10T20:44:01.962Z,64.24
2023-04-10T20:46:30.578Z,64.14
2023-04-10T20:48:59.776Z,64.25
2023-04-10T20:51:29.088Z,64.51
2023-04-10T20:53:57.635Z,64.53
2023-04-10T20:56:33.238Z,64.60
2023-04-10T20:59:09.129Z,64.44
2023-04-10T21:01:38.532Z,64.28
2023-04-10T21:04:07.502Z,64.47
2023-04-10T21:06:36.483Z,64.43
2023-04-10T21:09:06.578Z,64.33
2023-04-10T21:11:35.197Z,64.43
2023-04-10T21:14:04.078Z,64.64
2023-04-10T21:16:35.329Z,64.68
2023-04-10T21:19:03.844Z,64.85
2023-04-10T21:21:32.736Z,64.78
2023-04-10T21:24:02.239Z,64.70
2023-04-10T21:26:31.000Z,64.74
2023-04-10T21:28:59.938Z,64.67
2023-04-10T21:31:29.199Z,64.83
2023-04-10T21:33:57.801Z,64.74
2023-04-10T21:36:26.985Z,64.84
2023-04-10T21:38:56.409Z,65.13
2023-04-10T21:41:25.116Z,65.11
2023-04-10T21:44:00.917Z,64.93
2023-04-10T21:46:30.951Z,64.83
2023-04-10T21:48:59.880Z,64.91
2023-04-10T21:51:28.911Z,64.95
2023-04-10T21:53:57.583Z,65.11
2023-04-10T21:56:26.676Z,65.17
2023-04-10T21:58:56.109Z,65.36
2023-04-10T22:01:25.826Z,65.56
2023-04-10T22:03:55.372Z,65.67
2023-04-10T22:06:24.520Z,65.53
2023-04-10T22:08:53.428Z,65.63
2023-04-10T22:11:22.630Z,65.55
2023-04-10T22:13:52.836Z,65.49
2023-04-10T22:16:22.468Z,65.54
2023-04-10T22:18:51.403Z,65.58
2023-04-10T22:21:20.549Z,65.39
2023-04-10T22:23:49.880Z,65.37
2023-04-10T22:26:21.909Z,65.62
2023-04-10T22:28:50.968Z,65.58
2023-04-10T22:31:20.449Z,65.77
2023-04-10T22:33:49.903Z,65.83
2023-04-10T22:36:19.023Z,65.86
2023-04-10T22:38:47.866Z,65.93
2023-04-10T22:41:16.471Z,65.93
2023-04-10T22:43:45.366Z,65.79
2023-04-10T22:46:14.055Z,65.69
2023-04-10T22:48:44.003Z,65.82
2023-04-10T22:51:14.605Z,65.69
2023-04-10T22:53:43.907Z,65.92
2023-04-10T22:56:12.485Z,66.07
2023-04-10T22:58:41.208Z,66.02
2023-04-10T23:01:12.233Z,65.90
2023-04-10T23:03:41.298Z,65.87
2023-04-10T23:06:10.424Z,66.03
2023-04-10T23:08:39.398Z,65.94
2023-04-10T23:11:07.992Z,66.06
2023-04-10T23:13:36.802Z,66.04
2023-04-10T23:16:05.909Z,66.13
2023-04-10T23:18:36.948Z,66.07
2023-04-10T23:21:08.057Z,66.04
2023-04-10T23:23:36.755Z,66.09
2023-04-10T23:26:05.560Z,66.01
2023-04-10T23:28:34.429Z,66.04
2023-04-10T23:31:03.202Z,66.01
2023-04-10T23:33:31.777Z,66.02
2023-04-10T23:36:01.287Z,66.02
2023-04-10T23:38:29.863Z,66.23
2023-04-10T23:40:58.405Z,66.32
2023-04-10T23:43:27.931Z,66.47
2023-04-10T23:45:56.553Z,66.36
2023-04-10T23:48:25.629Z,66.27
2023-04-10T23:51:06.672Z,66.40
2023-04-10T23:53:36.005Z,66.58
2023-04-10T23:56:05.196Z,66.35
2023-04-10T23:58:34.043Z,66.60
